Time;durP1;ratioP1;P1;durP2;ratioP2;P2;SDS_P1;SDS_P2;PMS_P1;PMS_P2;Temp;Humidity;BMP_temperature;BMP_pressure;BME280_temperature;BME280_humidity;BME280_pressure;Samples;Min_cycle;Max_cycle;Signal;HPM_P1;HPM_P2
2022/03/22 00:01:24;;;;;;;9.50;5.47;;;;;;;;;;5051286;28;20075;-61
2022/03/22 00:03:50;;;;;;;11.35;6.05;;;;;;;;;;5051562;28;20037;-62
2022/03/22 00:06:18;;;;;;;10.40;6.07;;;;;;;;;;5051470;28;20021;-62
2022/03/22 00:08:44;;;;;;;10.13;5.65;;;;;;;;;;5051770;28;20029;-62
2022/03/22 00:11:11;;;;;;;10.48;6.22;;;;;;;;;;5051488;28;20023;-61
2022/03/22 00:13:37;;;;;;;10.93;6.35;;;;;;;;;;5043515;28;20063;-61
2022/03/22 00:16:03;;;;;;;9.65;5.30;;;;;;;;;;5045332;28;20049;-60
2022/03/22 00:18:32;;;;;;;20.05;7.10;;;;;;;;;;5031510;28;20022;-61
2022/03/22 00:20:58;;;;;;;10.80;5.70;;;;;;;;;;5031315;28;20053;-61
2022/03/22 00:23:24;;;;;;;12.35;6.57;;;;;;;;;;5031671;28;20037;-62
2022/03/22 00:25:50;;;;;;;17.08;6.78;;;;;;;;;;5031496;28;20032;-62
2022/03/22 00:28:16;;;;;;;12.90;5.68;;;;;;;;;;5031547;28;20033;-63
2022/03/22 00:30:43;;;;;;;11.25;5.30;;;;;;;;;;5034322;28;20031;-62
2022/03/22 00:33:10;;;;;;;12.02;5.85;;;;;;;;;;5051408;28;20037;-61
2022/03/22 00:35:37;;;;;;;11.73;6.10;;;;;;;;;;5035511;28;20022;-62
2022/03/22 00:38:16;;;;;;;10.93;5.90;;;;;;;;;;5035558;28;20029;-62
2022/03/22 00:40:43;;;;;;;10.55;5.38;;;;;;;;;;5050661;28;20114;-61
2022/03/22 00:43:09;;;;;;;9.23;5.40;;;;;;;;;;5035329;28;20057;-61
2022/03/22 00:45:39;;;;;;;11.63;5.53;;;;;;;;;;5034528;28;20029;-61
2022/03/22 00:48:06;;;;;;;10.45;6.25;;;;;;;;;;5041285;28;20032;-62
2022/03/22 00:50:33;;;;;;;9.40;5.07;;;;;;;;;;5054847;28;20495;-62
2022/03/22 00:53:00;;;;;;;9.75;5.60;;;;;;;;;;5042065;28;20468;-62
2022/03/22 00:55:27;;;;;;;9.15;5.07;;;;;;;;;;5035074;28;20033;-62
2022/03/22 00:57:54;;;;;;;8.55;4.88;;;;;;;;;;5034816;28;20029;-61
2022/03/22 01:00:22;;;;;;;13.07;5.40;;;;;;;;;;5035068;28;20025;-61
2022/03/22 01:02:49;;;;;;;9.63;4.88;;;;;;;;;;5034618;28;20060;-60
2022/03/22 01:05:17;;;;;;;10.20;5.22;;;;;;;;;;5034750;28;20156;-60
2022/03/22 01:07:51;;;;;;;8.32;5.30;;;;;;;;;;5034374;28;20029;-60
2022/03/22 01:10:17;;;;;;;9.65;5.40;;;;;;;;;;5034505;28;20021;-62
2022/03/22 01:12:44;;;;;;;10.00;5.00;;;;;;;;;;5034325;28;20087;-62
2022/03/22 01:15:15;;;;;;;9.98;5.90;;;;;;;;;;5034571;28;20034;-60
2022/03/22 01:17:45;;;;;;;9.55;5.20;;;;;;;;;;5034327;28;20421;-61
2022/03/22 01:20:11;;;;;;;11.02;5.38;;;;;;;;;;5037990;28;20026;-61
2022/03/22 01:22:44;;;;;;;9.27;5.18;;;;;;;;;;5034269;28;20069;-61
2022/03/22 01:25:14;;;;;;;8.23;4.63;;;;;;;;;;5034499;28;20029;-61
2022/03/22 01:27:41;;;;;;;10.43;5.57;;;;;;;;;;5034482;28;20025;-61
2022/03/22 01:30:08;;;;;;;10.07;5.43;;;;;;;;;;5034052;28;20553;-61
2022/03/22 01:32:35;;;;;;;12.02;5.90;;;;;;;;;;5034080;28;20152;-61
2022/03/22 01:35:01;;;;;;;8.65;4.85;;;;;;;;;;5033906;28;20025;-61
2022/03/22 01:37:27;;;;;;;9.95;5.57;;;;;;;;;;5033889;28;20021;-61
2022/03/22 01:39:54;;;;;;;10.15;5.00;;;;;;;;;;5033864;28;20018;-60
2022/03/22 01:42:21;;;;;;;9.93;5.15;;;;;;;;;;5033569;28;20506;-61
2022/03/22 01:44:48;;;;;;;8.65;5.20;;;;;;;;;;5033925;28;20534;-61
2022/03/22 01:47:16;;;;;;;7.97;4.25;;;;;;;;;;5033773;28;20021;-60
2022/03/22 01:49:42;;;;;;;8.85;4.97;;;;;;;;;;5049060;28;20025;-60
2022/03/22 01:52:09;;;;;;;8.63;4.40;;;;;;;;;;5033728;28;20485;-61
2022/03/22 01:54:36;;;;;;;9.05;4.72;;;;;;;;;;5033506;28;20033;-61
2022/03/22 01:57:02;;;;;;;13.25;5.38;;;;;;;;;;5033649;28;20095;-61
2022/03/22 01:59:28;;;;;;;7.93;4.93;;;;;;;;;;5033461;28;20021;-62
2022/03/22 02:07:23;;;;;;;9.65;4.55;;;;;;;;;;5033346;28;20140;-61
2022/03/22 02:09:49;;;;;;;11.32;4.75;;;;;;;;;;5051340;28;20025;-61
2022/03/22 02:12:15;;;;;;;8.38;4.70;;;;;;;;;;5038143;28;20101;-61
2022/03/22 02:14:41;;;;;;;9.15;5.30;;;;;;;;;;5043882;28;20025;-61
2022/03/22 02:17:09;;;;;;;9.00;4.85;;;;;;;;;;5053092;28;20048;-62
2022/03/22 02:19:39;;;;;;;7.03;4.68;;;;;;;;;;5053162;28;20021;-61
2022/03/22 02:22:07;;;;;;;7.63;4.47;;;;;;;;;;5053534;28;20041;-61
2022/03/22 02:24:33;;;;;;;10.55;4.65;;;;;;;;;;5053677;28;20013;-61
2022/03/22 02:26:59;;;;;;;6.68;3.90;;;;;;;;;;5053598;28;20028;-61
2022/03/22 02:29:25;;;;;;;6.72;4.15;;;;;;;;;;5043157;28;20033;-61
2022/03/22 02:31:54;;;;;;;7.93;4.40;;;;;;;;;;5051422;28;20053;-62
2022/03/22 02:34:20;;;;;;;8.85;4.82;;;;;;;;;;5053457;28;20068;-62
2022/03/22 02:36:46;;;;;;;8.00;4.38;;;;;;;;;;5053366;28;20059;-61
2022/03/22 02:39:13;;;;;;;8.82;4.53;;;;;;;;;;5053208;28;20027;-62
2022/03/22 02:41:39;;;;;;;9.80;4.85;;;;;;;;;;5053019;28;20112;-61
2022/03/22 02:44:05;;;;;;;11.45;5.43;;;;;;;;;;5052795;28;20388;-62
2022/03/22 02:46:31;;;;;;;9.43;4.65;;;;;;;;;;5052588;28;20032;-61
2022/03/22 02:48:57;;;;;;;7.95;4.70;;;;;;;;;;5052703;28;20021;-62
2022/03/22 02:51:23;;;;;;;7.85;4.25;;;;;;;;;;5052539;28;20495;-62
2022/03/22 02:53:49;;;;;;;7.43;4.60;;;;;;;;;;5067265;28;20377;-61
2022/03/22 02:56:15;;;;;;;8.30;4.60;;;;;;;;;;5052448;28;20476;-62
2022/03/22 02:58:41;;;;;;;7.63;4.50;;;;;;;;;;5040123;28;20033;-61
2022/03/22 03:01:08;;;;;;;8.05;4.70;;;;;;;;;;5051022;28;20067;-62
2022/03/22 03:03:34;;;;;;;7.78;4.55;;;;;;;;;;5050845;28;20032;-61
2022/03/22 03:06:00;;;;;;;8.35;4.45;;;;;;;;;;5051984;28;20025;-61
2022/03/22 03:08:26;;;;;;;7.28;4.00;;;;;;;;;;5051458;28;20472;-62
2022/03/22 03:10:53;;;;;;;8.02;4.22;;;;;;;;;;5052309;28;20025;-61
2022/03/22 03:13:19;;;;;;;7.75;4.55;;;;;;;;;;5051943;28;20021;-61
2022/03/22 03:15:46;;;;;;;7.93;4.22;;;;;;;;;;5051787;28;20021;-60
2022/03/22 03:18:13;;;;;;;7.15;4.00;;;;;;;;;;5052056;28;20028;-61
2022/03/22 03:20:39;;;;;;;7.75;4.32;;;;;;;;;;5052083;28;20032;-61
2022/03/22 03:23:06;;;;;;;8.27;4.38;;;;;;;;;;5051997;28;20516;-61
2022/03/22 03:25:32;;;;;;;7.93;4.50;;;;;;;;;;5051114;28;20499;-61
2022/03/22 03:27:58;;;;;;;7.38;4.07;;;;;;;;;;5067763;28;20384;-61
2022/03/22 03:30:24;;;;;;;7.78;4.47;;;;;;;;;;5052496;28;20025;-61
2022/03/22 03:32:50;;;;;;;7.95;4.78;;;;;;;;;;5052223;28;20028;-62
2022/03/22 03:35:16;;;;;;;7.10;4.25;;;;;;;;;;5051725;28;20057;-61
2022/03/22 03:37:43;;;;;;;7.60;4.00;;;;;;;;;;5051645;28;20040;-62
2022/03/22 03:40:10;;;;;;;7.30;4.25;;;;;;;;;;5051806;28;20025;-62
2022/03/22 03:42:42;;;;;;;7.07;3.92;;;;;;;;;;5051558;28;20098;-61
2022/03/22 03:47:55;;;;;;;7.03;3.75;;;;;;;;;;5051569;28;20098;-61
2022/03/22 03:50:21;;;;;;;6.18;3.80;;;;;;;;;;5051496;28;20410;-62
2022/03/22 03:52:48;;;;;;;7.72;3.88;;;;;;;;;;5051496;28;20024;-61
2022/03/22 03:55:14;;;;;;;8.63;4.43;;;;;;;;;;5051517;28;20104;-61
2022/03/22 03:57:40;;;;;;;7.80;4.35;;;;;;;;;;5051728;28;20024;-62
2022/03/22 04:00:09;;;;;;;8.80;4.63;;;;;;;;;;5051505;28;20032;-61
2022/03/22 04:02:36;;;;;;;7.70;4.28;;;;;;;;;;5051286;28;20056;-61
2022/03/22 04:05:02;;;;;;;7.22;3.80;;;;;;;;;;5050432;28;20150;-60
2022/03/22 04:07:28;;;;;;;7.43;4.28;;;;;;;;;;5051142;28;20029;-62
2022/03/22 04:09:54;;;;;;;7.82;4.10;;;;;;;;;;5051235;28;20013;-62
2022/03/22 04:12:22;;;;;;;7.80;4.32;;;;;;;;;;5051307;28;20052;-63
2022/03/22 04:14:51;;;;;;;11.27;4.55;;;;;;;;;;5049417;28;20468;-61
2022/03/22 04:17:17;;;;;;;7.82;4.25;;;;;;;;;;5051295;28;20024;-61
2022/03/22 04:19:43;;;;;;;6.65;4.10;;;;;;;;;;5051299;28;20025;-61
2022/03/22 04:22:09;;;;;;;8.55;4.05;;;;;;;;;;5051221;28;20455;-61
2022/03/22 04:24:36;;;;;;;7.75;4.07;;;;;;;;;;5051264;28;20037;-61
2022/03/22 04:32:43;;;;;;;7.75;4.10;;;;;;;;;;5050947;28;20091;-61
2022/03/22 04:35:14;;;;;;;7.07;4.20;;;;;;;;;;5050814;28;20025;-61
2022/03/22 04:37:40;;;;;;;7.78;4.10;;;;;;;;;;5050959;28;20025;-61
2022/03/22 04:40:07;;;;;;;6.80;3.95;;;;;;;;;;5050992;28;20102;-61
2022/03/22 04:42:34;;;;;;;8.18;4.03;;;;;;;;;;5050859;28;20033;-62
2022/03/22 04:45:00;;;;;;;7.13;4.50;;;;;;;;;;5050981;28;20017;-61
2022/03/22 04:47:26;;;;;;;6.38;3.90;;;;;;;;;;5050752;28;20043;-60
2022/03/22 04:49:53;;;;;;;9.48;4.00;;;;;;;;;;5050998;28;20083;-61
2022/03/22 04:57:48;;;;;;;10.77;4.43;;;;;;;;;;5050764;28;20039;-61
2022/03/22 05:00:14;;;;;;;7.20;4.45;;;;;;;;;;5050939;28;20021;-61
2022/03/22 05:02:40;;;;;;;7.88;4.55;;;;;;;;;;5050486;28;20044;-62
2022/03/22 05:05:07;;;;;;;6.78;3.92;;;;;;;;;;5050793;28;20017;-61
2022/03/22 05:07:33;;;;;;;6.93;4.07;;;;;;;;;;5050710;28;20108;-61
2022/03/22 05:09:59;;;;;;;7.40;3.95;;;;;;;;;;5050759;28;20049;-61
2022/03/22 05:12:25;;;;;;;8.43;4.45;;;;;;;;;;5050529;28;20025;-62
2022/03/22 05:14:51;;;;;;;7.75;4.50;;;;;;;;;;5050602;28;20025;-61
2022/03/22 05:17:21;;;;;;;6.63;4.20;;;;;;;;;;5053486;28;20075;-60
2022/03/22 05:19:50;;;;;;;7.20;4.10;;;;;;;;;;5054799;28;20017;-61
2022/03/22 05:22:17;;;;;;;7.25;4.20;;;;;;;;;;5054713;28;20029;-61
2022/03/22 05:24:43;;;;;;;7.80;3.72;;;;;;;;;;5054501;28;20029;-61
2022/03/22 05:27:09;;;;;;;8.02;4.30;;;;;;;;;;5054354;28;20033;-61
2022/03/22 05:29:36;;;;;;;8.38;4.50;;;;;;;;;;5054182;28;20084;-60
2022/03/22 05:32:02;;;;;;;7.10;3.60;;;;;;;;;;5053996;28;20029;-61
2022/03/22 05:34:28;;;;;;;8.18;4.40;;;;;;;;;;5053798;28;20702;-62
2022/03/22 05:36:54;;;;;;;7.40;3.92;;;;;;;;;;5053754;28;20048;-61
2022/03/22 05:39:20;;;;;;;8.65;4.63;;;;;;;;;;5053684;28;20029;-61
2022/03/22 05:41:46;;;;;;;7.43;4.20;;;;;;;;;;5053577;28;20029;-60
2022/03/22 05:44:12;;;;;;;7.93;4.38;;;;;;;;;;5053861;28;20021;-61
2022/03/22 05:46:39;;;;;;;8.82;4.45;;;;;;;;;;5053866;28;20021;-61
2022/03/22 05:49:05;;;;;;;8.32;4.93;;;;;;;;;;5053666;28;20100;-61
2022/03/22 05:51:31;;;;;;;8.23;4.57;;;;;;;;;;5054236;28;20033;-60
2022/03/22 05:53:57;;;;;;;7.60;4.63;;;;;;;;;;5054193;28;20036;-60
2022/03/22 05:56:23;;;;;;;8.43;4.82;;;;;;;;;;5054009;28;20492;-60
2022/03/22 05:58:49;;;;;;;8.02;4.32;;;;;;;;;;5054186;28;20029;-61
2022/03/22 06:01:16;;;;;;;9.05;4.30;;;;;;;;;;5053796;28;20025;-61
2022/03/22 06:03:42;;;;;;;8.43;4.88;;;;;;;;;;5053978;28;20368;-61
2022/03/22 06:06:08;;;;;;;10.15;4.90;;;;;;;;;;5053515;28;20032;-61
2022/03/22 06:08:34;;;;;;;9.45;5.13;;;;;;;;;;5053286;28;20021;-60
2022/03/22 06:11:00;;;;;;;8.77;5.10;;;;;;;;;;5053199;28;20056;-61
2022/03/22 06:13:26;;;;;;;8.38;4.88;;;;;;;;;;5052953;28;20375;-61
2022/03/22 06:15:52;;;;;;;8.18;4.90;;;;;;;;;;5050975;28;20380;-61
2022/03/22 06:18:18;;;;;;;9.13;5.10;;;;;;;;;;5051605;28;20541;-61
2022/03/22 06:20:44;;;;;;;14.13;5.68;;;;;;;;;;5051985;28;20040;-61
2022/03/22 06:23:11;;;;;;;9.18;5.55;;;;;;;;;;5052826;28;20068;-60
2022/03/22 06:25:38;;;;;;;11.52;5.63;;;;;;;;;;5052889;28;20025;-61
2022/03/22 06:28:06;;;;;;;8.35;4.97;;;;;;;;;;5051885;28;20028;-61
2022/03/22 06:30:33;;;;;;;9.13;4.97;;;;;;;;;;5052811;28;20021;-61
2022/03/22 06:33:07;;;;;;;11.43;5.75;;;;;;;;;;5052784;28;20112;-62
2022/03/22 06:35:33;;;;;;;18.45;5.25;;;;;;;;;;5052822;28;20393;-61
2022/03/22 06:38:00;;;;;;;10.73;5.47;;;;;;;;;;5052672;28;20101;-62
2022/03/22 06:40:28;;;;;;;12.32;5.03;;;;;;;;;;5052542;28;20028;-62
2022/03/22 06:42:55;;;;;;;14.07;5.65;;;;;;;;;;5052709;28;20036;-61
2022/03/22 06:45:21;;;;;;;9.25;5.10;;;;;;;;;;5053244;28;20445;-62
2022/03/22 06:47:48;;;;;;;11.77;5.20;;;;;;;;;;5052833;28;20051;-62
2022/03/22 06:50:15;;;;;;;15.88;5.53;;;;;;;;;;5052585;28;20039;-60
2022/03/22 06:52:42;;;;;;;13.50;4.82;;;;;;;;;;5068024;28;20020;-62
2022/03/22 06:55:10;;;;;;;14.35;6.30;;;;;;;;;;5052293;28;20452;-62
2022/03/22 06:57:36;;;;;;;24.95;7.22;;;;;;;;;;5052230;28;20029;-63
2022/03/22 07:00:05;;;;;;;18.45;6.30;;;;;;;;;;5052301;28;20579;-61
2022/03/22 07:02:31;;;;;;;17.55;6.93;;;;;;;;;;5051800;28;20090;-61
2022/03/22 07:04:57;;;;;;;16.45;6.35;;;;;;;;;;5051562;28;20086;-61
2022/03/22 07:07:24;;;;;;;12.90;6.45;;;;;;;;;;5052143;28;20027;-62
2022/03/22 07:09:50;;;;;;;12.00;5.97;;;;;;;;;;5052095;28;20031;-61
2022/03/22 07:12:16;;;;;;;19.10;8.27;;;;;;;;;;5051834;28;20025;-62
2022/03/22 07:14:42;;;;;;;11.45;6.03;;;;;;;;;;5051656;28;20074;-61
2022/03/22 07:17:09;;;;;;;19.95;6.88;;;;;;;;;;5051953;28;20063;-61
2022/03/22 07:19:35;;;;;;;20.70;6.90;;;;;;;;;;5050524;28;20021;-62
2022/03/22 07:22:02;;;;;;;21.13;6.13;;;;;;;;;;5051549;28;20472;-61
2022/03/22 07:24:28;;;;;;;18.40;7.15;;;;;;;;;;5051840;28;20075;-62
2022/03/22 07:26:54;;;;;;;18.77;6.43;;;;;;;;;;5051686;28;20029;-62
2022/03/22 07:29:21;;;;;;;21.92;7.70;;;;;;;;;;5051825;28;20023;-61
2022/03/22 07:31:47;;;;;;;21.38;7.38;;;;;;;;;;5050313;28;20021;-63
2022/03/22 07:34:15;;;;;;;18.02;7.75;;;;;;;;;;5051599;28;20491;-62
2022/03/22 07:36:42;;;;;;;15.00;6.90;;;;;;;;;;5051072;28;20020;-61
2022/03/22 07:39:08;;;;;;;14.88;6.55;;;;;;;;;;5051320;28;20052;-61
2022/03/22 07:41:36;;;;;;;12.30;5.53;;;;;;;;;;5051361;28;20025;-62
2022/03/22 07:44:03;;;;;;;14.00;7.38;;;;;;;;;;5051254;28;20094;-61
2022/03/22 07:46:30;;;;;;;14.48;6.32;;;;;;;;;;5051268;28;20144;-62
2022/03/22 07:52:58;;;;;;;17.75;7.30;;;;;;;;;;5034074;28;20021;-61
2022/03/22 07:54:27;;;;;;;18.83;7.65;;;;;;;;;;5035472;28;20119;-61
2022/03/22 07:56:53;;;;;;;14.65;6.97;;;;;;;;;;5046170;28;20028;-61
2022/03/22 07:59:19;;;;;;;13.60;6.32;;;;;;;;;;5051042;28;20563;-62
2022/03/22 08:01:45;;;;;;;13.05;6.60;;;;;;;;;;5050570;28;20041;-61
2022/03/22 08:04:11;;;;;;;13.30;6.28;;;;;;;;;;5051112;28;20043;-63
2022/03/22 08:06:37;;;;;;;15.65;6.53;;;;;;;;;;5051019;28;20061;-64
2022/03/22 08:09:04;;;;;;;15.75;6.22;;;;;;;;;;5051116;28;20022;-62
2022/03/22 08:11:30;;;;;;;14.85;6.65;;;;;;;;;;5050610;28;20100;-62
2022/03/22 08:13:59;;;;;;;11.48;5.60;;;;;;;;;;5051002;28;20118;-62
2022/03/22 08:16:26;;;;;;;12.82;5.80;;;;;;;;;;5047877;28;20084;-63
2022/03/22 08:18:52;;;;;;;11.80;6.13;;;;;;;;;;5038189;28;20036;-62
2022/03/22 08:21:19;;;;;;;12.85;6.15;;;;;;;;;;5044213;28;20021;-62
2022/03/22 08:23:45;;;;;;;10.93;7.00;;;;;;;;;;5050832;28;20040;-62
2022/03/22 08:26:11;;;;;;;14.07;7.50;;;;;;;;;;5051036;28;20102;-62
2022/03/22 08:28:37;;;;;;;13.80;6.45;;;;;;;;;;5035233;28;20572;-63
2022/03/22 08:31:03;;;;;;;12.07;5.78;;;;;;;;;;5030795;28;20088;-63
2022/03/22 08:33:29;;;;;;;11.02;6.03;;;;;;;;;;5031001;28;20097;-62
2022/03/22 08:35:55;;;;;;;13.70;5.90;;;;;;;;;;5031197;28;20030;-63
2022/03/22 08:38:24;;;;;;;11.32;5.50;;;;;;;;;;5031350;28;20029;-63
2022/03/22 08:40:51;;;;;;;10.57;6.20;;;;;;;;;;5031358;28;20022;-62
2022/03/22 08:43:19;;;;;;;12.73;6.93;;;;;;;;;;5031049;28;20041;-63
2022/03/22 08:45:45;;;;;;;11.70;6.60;;;;;;;;;;5031106;28;20026;-63
2022/03/22 08:48:12;;;;;;;10.45;6.10;;;;;;;;;;5045966;28;20013;-63
2022/03/22 08:50:39;;;;;;;14.48;6.93;;;;;;;;;;5034526;28;20432;-63
2022/03/22 08:53:06;;;;;;;11.48;6.50;;;;;;;;;;5054790;28;20464;-63
2022/03/22 08:55:33;;;;;;;12.35;6.53;;;;;;;;;;5054755;28;20054;-63
2022/03/22 08:58:05;;;;;;;12.88;6.70;;;;;;;;;;5054636;28;20379;-62
2022/03/22 09:00:32;;;;;;;12.77;6.82;;;;;;;;;;5054554;28;20024;-62
2022/03/22 09:02:58;;;;;;;11.70;6.82;;;;;;;;;;5054009;28;20396;-63
2022/03/22 09:08:08;;;;;;;13.90;7.70;;;;;;;;;;5054458;28;20094;-63
2022/03/22 09:10:35;;;;;;;13.15;7.97;;;;;;;;;;5054649;28;20096;-61
2022/03/22 09:13:03;;;;;;;16.17;7.93;;;;;;;;;;5054887;28;20060;-62
2022/03/22 09:15:30;;;;;;;17.52;8.20;;;;;;;;;;5068260;28;20029;-62
2022/03/22 09:17:57;;;;;;;11.52;7.15;;;;;;;;;;5034944;28;20472;-62
2022/03/22 09:20:23;;;;;;;15.18;7.63;;;;;;;;;;5034114;28;20044;-61
2022/03/22 09:22:51;;;;;;;11.32;6.70;;;;;;;;;;5034322;28;20033;-63
2022/03/22 09:25:18;;;;;;;13.85;7.63;;;;;;;;;;5034359;28;20383;-61
2022/03/22 09:27:44;;;;;;;13.63;7.80;;;;;;;;;;5034359;28;20414;-63
2022/03/22 09:30:11;;;;;;;15.85;7.75;;;;;;;;;;5034672;28;20037;-63
2022/03/22 09:32:38;;;;;;;15.40;7.60;;;;;;;;;;5032796;28;20026;-63
2022/03/22 09:35:07;;;;;;;11.80;6.35;;;;;;;;;;5033242;28;20124;-62
2022/03/22 09:37:36;;;;;;;13.07;6.40;;;;;;;;;;5048014;28;20040;-63
2022/03/22 09:40:03;;;;;;;11.52;6.55;;;;;;;;;;5034127;28;20018;-62
2022/03/22 09:42:30;;;;;;;11.25;6.50;;;;;;;;;;5043912;28;20033;-62
2022/03/22 09:45:00;;;;;;;10.70;6.05;;;;;;;;;;5054072;28;20024;-62
2022/03/22 09:47:26;;;;;;;12.43;6.95;;;;;;;;;;5053820;28;20021;-62
2022/03/22 09:49:52;;;;;;;10.63;6.22;;;;;;;;;;5054010;28;20021;-62
2022/03/22 09:52:19;;;;;;;12.25;6.70;;;;;;;;;;5053777;28;20558;-62
2022/03/22 09:54:46;;;;;;;12.80;6.22;;;;;;;;;;5053534;28;20029;-62
2022/03/22 09:57:12;;;;;;;10.77;5.93;;;;;;;;;;5053790;28;20017;-61
2022/03/22 09:59:38;;;;;;;9.63;6.38;;;;;;;;;;5053485;28;20025;-62
2022/03/22 10:02:05;;;;;;;9.77;6.30;;;;;;;;;;5052688;28;20106;-63
2022/03/22 10:04:39;;;;;;;10.32;6.00;;;;;;;;;;5053046;28;20103;-63
2022/03/22 10:07:06;;;;;;;11.48;5.95;;;;;;;;;;5053451;28;20084;-63
2022/03/22 10:09:37;;;;;;;9.23;5.40;;;;;;;;;;5053082;28;20472;-63
2022/03/22 10:12:04;;;;;;;10.77;5.47;;;;;;;;;;5053184;28;20052;-62
2022/03/22 10:14:38;;;;;;;9.35;5.18;;;;;;;;;;5053286;28;20027;-64
2022/03/22 10:17:10;;;;;;;10.77;5.90;;;;;;;;;;5053324;28;20052;-64
2022/03/22 10:19:41;;;;;;;10.02;5.20;;;;;;;;;;5053347;28;20468;-64
2022/03/22 10:22:10;;;;;;;10.82;6.07;;;;;;;;;;5053282;28;20029;-61
2022/03/22 10:24:50;;;;;;;10.77;5.20;;;;;;;;;;5053134;28;20056;-61
2022/03/22 10:27:20;;;;;;;9.35;5.75;;;;;;;;;;5053390;28;20047;-62
2022/03/22 10:29:46;;;;;;;10.05;5.60;;;;;;;;;;5052841;28;20029;-61
2022/03/22 10:32:12;;;;;;;10.23;5.90;;;;;;;;;;5034676;28;20025;-62
2022/03/22 10:34:38;;;;;;;12.13;6.13;;;;;;;;;;5033329;28;20026;-61
2022/03/22 10:37:04;;;;;;;9.38;5.50;;;;;;;;;;5039129;28;20384;-62
2022/03/22 10:39:30;;;;;;;11.60;5.28;;;;;;;;;;5052914;28;20025;-63
2022/03/22 10:42:04;;;;;;;9.27;4.85;;;;;;;;;;5052917;28;20033;-62
2022/03/22 10:44:34;;;;;;;8.52;5.05;;;;;;;;;;5052821;28;20503;-62
2022/03/22 10:47:02;;;;;;;7.82;4.53;;;;;;;;;;5052936;28;20385;-63
2022/03/22 10:49:28;;;;;;;10.68;5.15;;;;;;;;;;5052648;28;20027;-63
2022/03/22 10:51:56;;;;;;;9.95;5.13;;;;;;;;;;5052491;28;20017;-66
2022/03/22 10:54:23;;;;;;;10.68;6.05;;;;;;;;;;5052617;28;20013;-64
2022/03/22 10:56:55;;;;;;;9.40;5.25;;;;;;;;;;5052587;28;20025;-62
2022/03/22 10:59:23;;;;;;;10.15;6.03;;;;;;;;;;5053063;28;20017;-62
2022/03/22 11:01:50;;;;;;;9.40;5.68;;;;;;;;;;5052253;28;20047;-63
2022/03/22 11:04:17;;;;;;;9.07;4.93;;;;;;;;;;5052482;28;20025;-62
2022/03/22 11:06:46;;;;;;;10.38;4.82;;;;;;;;;;5052549;28;20104;-61
2022/03/22 11:09:13;;;;;;;10.48;4.90;;;;;;;;;;5052573;28;20021;-62
2022/03/22 11:11:40;;;;;;;11.75;5.10;;;;;;;;;;5052474;28;20030;-62
2022/03/22 11:14:06;;;;;;;7.40;4.60;;;;;;;;;;5051876;28;20460;-63
2022/03/22 11:16:33;;;;;;;10.95;4.80;;;;;;;;;;5052357;28;20531;-62
2022/03/22 11:19:00;;;;;;;10.80;5.57;;;;;;;;;;5052282;28;20028;-61
2022/03/22 11:21:27;;;;;;;8.93;4.80;;;;;;;;;;5052080;28;20033;-62
2022/03/22 11:24:07;;;;;;;8.23;4.72;;;;;;;;;;5052212;28;20087;-64
2022/03/22 11:26:39;;;;;;;9.52;4.65;;;;;;;;;;5052096;28;20063;-62
2022/03/22 11:29:05;;;;;;;8.35;4.25;;;;;;;;;;5052438;28;20025;-64
2022/03/22 11:31:31;;;;;;;7.53;4.47;;;;;;;;;;5051916;28;20109;-62
2022/03/22 11:34:11;;;;;;;12.65;4.72;;;;;;;;;;5051745;28;20021;-64
2022/03/22 11:36:48;;;;;;;10.05;4.88;;;;;;;;;;5051731;28;20017;-64
2022/03/22 11:42:15;;;;;;;8.88;4.82;;;;;;;;;;5052081;28;20029;-64
2022/03/22 11:42:17;;;;;;;7.20;3.80;;;;;;;;;;5051549;28;20037;-61
2022/03/22 11:44:43;;;;;;;8.13;4.55;;;;;;;;;;5051425;28;20040;-62
2022/03/22 11:47:12;;;;;;;7.82;4.70;;;;;;;;;;5051281;28;20448;-63
2022/03/22 11:49:47;;;;;;;9.15;4.75;;;;;;;;;;5051041;28;20025;-62
2022/03/22 11:52:13;;;;;;;8.13;4.47;;;;;;;;;;5050863;28;20017;-63
2022/03/22 11:54:40;;;;;;;7.65;4.43;;;;;;;;;;5051132;28;20025;-63
2022/03/22 11:57:07;;;;;;;8.88;4.43;;;;;;;;;;5051175;28;20661;-61
2022/03/22 11:59:41;;;;;;;7.68;4.20;;;;;;;;;;5050737;28;20040;-63
2022/03/22 12:02:12;;;;;;;8.23;4.35;;;;;;;;;;5049382;28;20131;-62
2022/03/22 12:04:38;;;;;;;17.15;6.28;;;;;;;;;;5051615;28;20493;-64
2022/03/22 12:07:05;;;;;;;8.63;4.28;;;;;;;;;;5051665;28;20017;-63
2022/03/22 12:09:31;;;;;;;8.40;4.10;;;;;;;;;;5051125;28;20025;-62
2022/03/22 12:12:00;;;;;;;10.45;4.60;;;;;;;;;;5051524;28;20021;-61
2022/03/22 12:14:30;;;;;;;10.73;4.90;;;;;;;;;;5051410;28;20021;-63
2022/03/22 12:16:56;;;;;;;7.82;4.07;;;;;;;;;;5051473;28;20017;-62
2022/03/22 12:19:30;;;;;;;9.98;4.35;;;;;;;;;;5051421;28;20029;-62
2022/03/22 12:21:58;;;;;;;12.13;4.25;;;;;;;;;;5051381;28;20029;-63
2022/03/22 12:24:24;;;;;;;17.40;4.85;;;;;;;;;;5051168;28;20478;-64
2022/03/22 12:26:51;;;;;;;9.13;4.32;;;;;;;;;;5053657;28;20164;-63
2022/03/22 12:29:18;;;;;;;10.85;4.18;;;;;;;;;;5037674;28;20025;-61
2022/03/22 12:31:48;;;;;;;10.50;4.18;;;;;;;;;;5034324;28;20032;-61
2022/03/22 12:34:14;;;;;;;12.60;4.88;;;;;;;;;;5035170;28;20079;-61
2022/03/22 12:36:40;;;;;;;11.23;4.10;;;;;;;;;;5035245;28;20026;-63
2022/03/22 12:39:06;;;;;;;9.27;4.28;;;;;;;;;;5035339;28;20076;-62
2022/03/22 12:41:32;;;;;;;7.20;3.55;;;;;;;;;;5034991;28;20029;-61
2022/03/22 12:43:58;;;;;;;7.28;3.17;;;;;;;;;;5034674;28;20052;-60
2022/03/22 12:46:24;;;;;;;7.40;3.65;;;;;;;;;;5035015;28;20435;-61
2022/03/22 12:48:52;;;;;;;10.13;3.83;;;;;;;;;;5035287;28;20159;-62
2022/03/22 12:51:19;;;;;;;7.75;4.05;;;;;;;;;;5044308;28;20111;-61
2022/03/22 12:53:46;;;;;;;10.52;3.60;;;;;;;;;;5055066;28;20029;-62
2022/03/22 12:56:15;;;;;;;7.45;3.92;;;;;;;;;;5054784;28;20052;-61
2022/03/22 12:58:42;;;;;;;8.75;4.25;;;;;;;;;;5054714;28;20110;-61
2022/03/22 13:01:08;;;;;;;7.35;3.45;;;;;;;;;;5054976;28;20415;-61
2022/03/22 13:03:36;;;;;;;8.20;3.80;;;;;;;;;;5054730;28;20037;-61
2022/03/22 13:06:03;;;;;;;6.93;3.72;;;;;;;;;;5054463;28;20017;-63
2022/03/22 13:11:26;;;;;;;6.38;3.28;;;;;;;;;;5054729;28;20032;-62
2022/03/22 13:11:29;;;;;;;7.28;3.47;;;;;;;;;;5054581;28;20029;-62
2022/03/22 13:16:51;;;;;;;6.18;3.50;;;;;;;;;;5054338;28;20083;-61
2022/03/22 13:19:17;;;;;;;6.13;3.15;;;;;;;;;;5054756;28;20120;-62
2022/03/22 13:21:44;;;;;;;6.57;3.28;;;;;;;;;;5054329;28;20040;-62
2022/03/22 13:24:12;;;;;;;6.32;3.42;;;;;;;;;;5054376;28;20109;-63
2022/03/22 13:26:39;;;;;;;5.65;3.30;;;;;;;;;;5054122;28;20079;-62
2022/03/22 13:29:10;;;;;;;7.82;3.50;;;;;;;;;;5053196;28;20013;-62
2022/03/22 13:31:36;;;;;;;7.72;4.03;;;;;;;;;;5054267;28;20028;-61
2022/03/22 13:34:02;;;;;;;7.72;3.50;;;;;;;;;;5054314;28;20548;-63
2022/03/22 13:36:28;;;;;;;8.55;3.88;;;;;;;;;;5053321;28;20020;-61
2022/03/22 13:38:54;;;;;;;6.43;3.60;;;;;;;;;;5054022;28;20025;-61
2022/03/22 13:41:30;;;;;;;5.95;3.72;;;;;;;;;;5054094;28;20422;-62
2022/03/22 13:43:56;;;;;;;8.35;3.60;;;;;;;;;;5063710;28;20030;-60
2022/03/22 13:46:22;;;;;;;9.23;4.20;;;;;;;;;;5034149;28;20025;-61
2022/03/22 13:48:53;;;;;;;7.07;3.65;;;;;;;;;;5034179;28;20029;-61
2022/03/22 13:51:23;;;;;;;6.28;3.20;;;;;;;;;;5049438;28;20021;-61
2022/03/22 13:53:52;;;;;;;9.93;3.78;;;;;;;;;;5034211;28;20029;-61
2022/03/22 13:56:22;;;;;;;13.02;4.70;;;;;;;;;;5034178;28;20018;-61
2022/03/22 13:58:48;;;;;;;10.00;4.65;;;;;;;;;;5034201;28;20104;-61
2022/03/22 14:01:15;;;;;;;12.85;4.28;;;;;;;;;;5033860;28;20017;-62
2022/03/22 14:03:42;;;;;;;9.05;3.45;;;;;;;;;;5034003;28;20040;-61
2022/03/22 14:06:08;;;;;;;15.15;4.97;;;;;;;;;;5033746;28;20481;-61
2022/03/22 14:08:36;;;;;;;6.75;3.38;;;;;;;;;;5033766;28;20047;-61
2022/03/22 14:11:02;;;;;;;8.43;4.13;;;;;;;;;;5033517;28;20017;-60
2022/03/22 14:13:29;;;;;;;8.93;3.92;;;;;;;;;;5033749;28;20029;-60
2022/03/22 14:15:55;;;;;;;7.85;3.22;;;;;;;;;;5033802;28;20018;-61
2022/03/22 14:18:22;;;;;;;7.22;3.35;;;;;;;;;;5033713;28;20029;-61
2022/03/22 14:20:50;;;;;;;5.88;3.30;;;;;;;;;;5039628;28;20056;-60
2022/03/22 14:23:16;;;;;;;15.85;4.95;;;;;;;;;;5052846;28;20040;-62
2022/03/22 14:25:42;;;;;;;11.40;3.83;;;;;;;;;;5053535;28;20143;-61
2022/03/22 14:28:08;;;;;;;11.48;4.15;;;;;;;;;;5052088;28;20029;-62
2022/03/22 14:30:36;;;;;;;9.10;4.35;;;;;;;;;;5053175;28;20056;-61
2022/03/22 14:33:04;;;;;;;12.40;3.80;;;;;;;;;;5053470;28;20376;-61
2022/03/22 14:38:17;;;;;;;10.68;3.45;;;;;;;;;;5053159;28;20715;-61
2022/03/22 14:40:43;;;;;;;9.85;3.80;;;;;;;;;;5053092;28;20396;-62
2022/03/22 14:43:10;;;;;;;11.23;3.85;;;;;;;;;;5052873;28;20037;-61
2022/03/22 14:45:37;;;;;;;7.78;3.35;;;;;;;;;;5052740;28;20082;-61
2022/03/22 14:48:03;;;;;;;9.90;3.63;;;;;;;;;;5052475;28;20049;-62
2022/03/22 14:50:30;;;;;;;12.82;3.72;;;;;;;;;;5049607;28;20021;-62
2022/03/22 14:55:41;;;;;;;8.48;3.55;;;;;;;;;;5033186;28;20116;-62
2022/03/22 15:00:56;;;;;;;10.90;3.88;;;;;;;;;;5032840;28;20041;-61
2022/03/22 15:03:27;;;;;;;7.50;3.10;;;;;;;;;;5032721;28;20052;-62
2022/03/22 15:06:03;;;;;;;7.43;3.53;;;;;;;;;;5032926;28;20385;-63
2022/03/22 15:08:31;;;;;;;5.88;2.97;;;;;;;;;;5032701;28;20104;-61
2022/03/22 15:10:57;;;;;;;6.43;3.60;;;;;;;;;;5032990;28;20021;-61
2022/03/22 15:13:25;;;;;;;9.18;3.67;;;;;;;;;;5032821;28;20079;-62
2022/03/22 15:15:52;;;;;;;7.72;2.92;;;;;;;;;;5032448;28;20021;-63